createdAt,value
2022-08-26T00:01:38.295Z,20.50
2022-08-26T00:04:05.077Z,20.40
2022-08-26T00:06:33.291Z,20.60
2022-08-26T00:09:00.438Z,20.50
2022-08-26T00:11:27.854Z,20.50
2022-08-26T00:13:55.322Z,20.40
2022-08-26T00:16:24.733Z,20.40
2022-08-26T00:18:52.926Z,20.40
2022-08-26T00:21:20.626Z,20.50
2022-08-26T00:23:47.569Z,20.50
2022-08-26T00:26:15.329Z,20.50
2022-08-26T00:28:42.262Z,20.60
2022-08-26T00:31:10.869Z,20.70
2022-08-26T00:33:39.025Z,20.70
2022-08-26T00:36:06.685Z,20.70
2022-08-26T00:38:34.982Z,20.60
2022-08-26T00:41:05.489Z,20.70
2022-08-26T00:43:47.136Z,20.70
2022-08-26T00:46:19.384Z,20.70
2022-08-26T00:48:49.494Z,20.70
2022-08-26T00:51:20.744Z,20.70
2022-08-26T00:54:00.569Z,20.70
2022-08-26T00:56:34.356Z,20.70
2022-08-26T00:59:08.582Z,20.70
2022-08-26T01:01:37.974Z,20.70
2022-08-26T01:04:05.946Z,20.60
2022-08-26T01:06:32.587Z,20.70
2022-08-26T01:08:59.474Z,20.60
2022-08-26T01:11:26.329Z,20.60
2022-08-26T01:13:56.447Z,20.60
2022-08-26T01:16:25.420Z,20.60
2022-08-26T01:18:59.343Z,20.60
2022-08-26T01:21:40.630Z,20.60
2022-08-26T01:24:08.618Z,20.70
2022-08-26T01:26:41.215Z,20.60
2022-08-26T01:29:12.811Z,20.60
2022-08-26T01:31:43.268Z,20.60
2022-08-26T01:34:25.740Z,20.50
2022-08-26T01:36:58.611Z,20.60
2022-08-26T01:39:25.515Z,20.60
2022-08-26T01:41:56.693Z,20.60
2022-08-26T01:44:26.822Z,20.50
2022-08-26T01:46:56.854Z,20.50
2022-08-26T01:49:26.325Z,20.60
2022-08-26T01:51:55.177Z,20.50
2022-08-26T01:54:23.497Z,20.60
2022-08-26T01:56:52.269Z,20.40
2022-08-26T01:59:20.472Z,20.50
2022-08-26T02:01:48.198Z,20.40
2022-08-26T02:04:21.316Z,20.40
2022-08-26T02:06:49.315Z,20.50
2022-08-26T02:09:17.116Z,20.40
2022-08-26T02:11:45.024Z,20.40
2022-08-26T02:14:26.807Z,20.40
2022-08-26T02:16:55.110Z,20.40
2022-08-26T02:19:34.349Z,20.40
2022-08-26T02:22:05.342Z,20.50
2022-08-26T02:25:11.631Z,20.40
2022-08-26T02:27:38.242Z,20.40
2022-08-26T02:30:09.753Z,20.40
2022-08-26T02:32:37.712Z,20.30
2022-08-26T02:35:08.301Z,20.30
2022-08-26T02:37:36.123Z,20.40
2022-08-26T02:40:04.884Z,20.40
2022-08-26T02:42:31.559Z,20.30
2022-08-26T02:44:58.830Z,20.40
2022-08-26T02:47:25.649Z,20.30
2022-08-26T02:49:55.818Z,20.40
2022-08-26T02:52:22.437Z,20.40
2022-08-26T02:54:49.468Z,20.40
2022-08-26T02:57:16.769Z,20.30
2022-08-26T02:59:43.894Z,20.30
2022-08-26T03:02:12.127Z,20.40
2022-08-26T03:04:40.243Z,20.30
2022-08-26T03:07:07.352Z,20.40
2022-08-26T03:09:35.309Z,20.30
2022-08-26T03:12:02.082Z,20.30
2022-08-26T03:14:29.738Z,20.20
2022-08-26T03:16:56.869Z,20.20
2022-08-26T03:19:25.452Z,20.30
2022-08-26T03:21:53.681Z,20.30
2022-08-26T03:24:25.394Z,20.10
2022-08-26T03:26:53.062Z,20.20
2022-08-26T03:29:39.178Z,20.10
2022-08-26T03:32:06.082Z,20.20
2022-08-26T03:34:32.713Z,20.10
2022-08-26T03:36:59.351Z,20.20
2022-08-26T03:39:26.253Z,20.20
2022-08-26T03:41:54.186Z,20.10
2022-08-26T03:44:21.205Z,20.20
2022-08-26T03:46:47.836Z,20.20
2022-08-26T03:49:15.205Z,20.10
2022-08-26T03:51:42.156Z,20.10
2022-08-26T03:54:09.304Z,20.10
2022-08-26T03:56:36.800Z,20.00
2022-08-26T03:59:04.629Z,20.00
2022-08-26T04:01:31.442Z,19.90
2022-08-26T04:04:00.279Z,20.00
2022-08-26T04:06:34.136Z,19.90
2022-08-26T04:09:05.157Z,20.00
2022-08-26T04:11:35.710Z,19.90
2022-08-26T04:14:09.580Z,19.90
2022-08-26T04:16:36.896Z,19.90
2022-08-26T04:19:03.642Z,20.00
2022-08-26T04:21:30.558Z,19.90
2022-08-26T04:23:58.276Z,20.00
2022-08-26T04:26:25.838Z,19.90
2022-08-26T04:28:54.640Z,19.90
2022-08-26T04:31:21.998Z,19.90
2022-08-26T04:33:50.027Z,19.90
2022-08-26T04:36:19.931Z,20.00
2022-08-26T04:38:47.359Z,19.90
2022-08-26T04:41:14.869Z,20.00
2022-08-26T04:43:42.557Z,20.00
2022-08-26T04:46:11.391Z,20.10
2022-08-26T04:48:40.905Z,20.00
2022-08-26T04:51:07.993Z,19.90
2022-08-26T04:53:34.719Z,19.90
2022-08-26T04:56:01.518Z,20.00
2022-08-26T04:58:30.891Z,19.90
2022-08-26T05:00:58.633Z,20.00
2022-08-26T05:03:27.286Z,20.00
2022-08-26T05:05:58.371Z,20.00
2022-08-26T05:08:25.308Z,20.00
2022-08-26T05:10:55.896Z,20.10
2022-08-26T05:13:26.111Z,20.10
2022-08-26T05:15:53.193Z,20.30
2022-08-26T05:18:23.419Z,20.10
2022-08-26T05:20:54.010Z,20.20
2022-08-26T05:23:23.119Z,20.20
2022-08-26T05:25:53.717Z,20.10
2022-08-26T05:28:22.688Z,20.10
2022-08-26T05:30:50.188Z,20.20
2022-08-26T05:33:18.442Z,20.20
2022-08-26T05:35:46.553Z,20.20
2022-08-26T05:38:16.282Z,20.10
2022-08-26T05:40:46.306Z,20.20
2022-08-26T05:43:13.895Z,20.20
2022-08-26T05:45:49.227Z,20.30
2022-08-26T05:48:18.572Z,20.30
2022-08-26T05:50:51.442Z,20.30
2022-08-26T05:53:20.859Z,20.20
2022-08-26T05:55:50.727Z,20.30
2022-08-26T05:58:20.807Z,20.30
2022-08-26T06:01:17.040Z,20.30
2022-08-26T06:03:46.442Z,20.40
2022-08-26T06:06:27.595Z,20.40
2022-08-26T06:08:55.916Z,20.40
2022-08-26T06:11:26.913Z,20.50
2022-08-26T06:14:03.645Z,20.50
2022-08-26T06:16:34.537Z,20.60
2022-08-26T06:19:03.178Z,20.60
2022-08-26T06:21:32.436Z,20.70
2022-08-26T06:24:21.445Z,20.70
2022-08-26T06:27:01.257Z,20.70
2022-08-26T06:29:29.397Z,20.70
2022-08-26T06:31:57.880Z,20.70
2022-08-26T06:34:26.672Z,20.70
2022-08-26T06:37:01.284Z,20.80
2022-08-26T06:39:31.136Z,20.80
2022-08-26T06:41:59.215Z,20.70
2022-08-26T06:44:26.688Z,20.80
2022-08-26T06:46:53.462Z,20.80
2022-08-26T06:49:27.263Z,21.00
2022-08-26T06:51:58.252Z,20.90
2022-08-26T06:54:25.835Z,21.00
2022-08-26T06:56:52.447Z,21.00
2022-08-26T06:59:19.131Z,20.90
2022-08-26T07:01:46.481Z,21.00
2022-08-26T07:04:20.040Z,21.00
2022-08-26T07:06:50.150Z,21.00
2022-08-26T07:09:20.655Z,21.00
2022-08-26T07:11:48.070Z,21.00
2022-08-26T07:14:16.709Z,21.20
2022-08-26T07:16:43.298Z,21.30
2022-08-26T07:19:10.869Z,21.10
2022-08-26T07:21:40.171Z,21.10
2022-08-26T07:24:07.653Z,21.00
2022-08-26T07:26:34.503Z,21.10
2022-08-26T07:29:01.665Z,21.20
2022-08-26T07:31:34.763Z,21.30
2022-08-26T07:34:07.536Z,21.40
2022-08-26T07:36:34.496Z,21.50
2022-08-26T07:39:01.114Z,21.50
2022-08-26T07:43:56.699Z,21.60
2022-08-26T07:46:27.056Z,21.50
2022-08-26T07:48:57.349Z,21.50
2022-08-26T07:51:24.774Z,21.40
2022-08-26T07:53:53.065Z,21.50
2022-08-26T07:56:21.710Z,21.50
2022-08-26T07:58:51.771Z,21.60
2022-08-26T08:01:24.170Z,21.80
2022-08-26T08:03:51.942Z,21.80
2022-08-26T08:06:20.357Z,21.80
2022-08-26T08:08:47.634Z,21.80
2022-08-26T08:11:21.200Z,22.00
2022-08-26T08:13:49.708Z,22.00
2022-08-26T08:16:24.182Z,22.00
2022-08-26T08:18:51.374Z,22.10
2022-08-26T08:21:21.103Z,22.10
2022-08-26T08:23:49.222Z,21.90
2022-08-26T08:26:15.827Z,22.00
2022-08-26T08:28:43.607Z,21.90
2022-08-26T08:31:44.974Z,22.00
2022-08-26T08:34:08.656Z,21.90
2022-08-26T08:36:35.904Z,22.00
2022-08-26T08:39:03.166Z,22.10
2022-08-26T08:42:08.355Z,22.00
2022-08-26T08:44:40.925Z,22.20
2022-08-26T08:47:36.834Z,22.30
2022-08-26T08:50:16.081Z,22.30
2022-08-26T08:52:48.711Z,22.20
2022-08-26T08:55:18.282Z,22.10
2022-08-26T08:58:02.251Z,22.00
2022-08-26T09:00:39.687Z,22.00
2022-08-26T09:03:44.461Z,22.10
2022-08-26T09:06:18.644Z,22.10
2022-08-26T09:08:47.610Z,22.10
2022-08-26T09:11:18.691Z,22.20
2022-08-26T09:13:50.530Z,22.20
2022-08-26T09:16:26.544Z,22.00
2022-08-26T09:19:11.849Z,21.90
2022-08-26T09:21:38.551Z,22.00
2022-08-26T09:24:06.139Z,21.80
2022-08-26T09:26:38.731Z,21.80
2022-08-26T09:29:11.303Z,21.80
2022-08-26T09:31:39.125Z,21.80
2022-08-26T09:34:27.238Z,21.80
2022-08-26T09:36:59.416Z,21.80
2022-08-26T09:39:29.033Z,21.90
2022-08-26T09:42:06.764Z,21.90
2022-08-26T09:44:35.576Z,21.90
2022-08-26T09:47:07.262Z,22.00
2022-08-26T09:49:39.369Z,22.10
2022-08-26T09:52:13.435Z,22.10
2022-08-26T09:54:41.234Z,22.20
2022-08-26T09:57:28.995Z,22.40
2022-08-26T09:59:55.840Z,22.60
2022-08-26T10:02:31.641Z,22.70
2022-08-26T10:05:09.422Z,22.70
2022-08-26T10:07:50.970Z,23.00
2022-08-26T10:10:23.893Z,23.10
2022-08-26T10:13:12.349Z,23.00
2022-08-26T10:15:51.192Z,23.20
2022-08-26T10:18:25.054Z,23.20
2022-08-26T10:21:10.945Z,22.90
2022-08-26T10:23:51.820Z,22.80
2022-08-26T10:26:42.801Z,22.60
2022-08-26T10:29:26.053Z,22.50
2022-08-26T10:32:02.477Z,22.50
2022-08-26T10:34:32.074Z,22.60
2022-08-26T10:37:15.013Z,22.40
2022-08-26T10:39:59.190Z,22.50
2022-08-26T10:42:46.529Z,22.50
2022-08-26T10:45:20.046Z,22.50
2022-08-26T10:48:11.005Z,22.60
2022-08-26T10:50:43.315Z,22.80
2022-08-26T10:53:34.761Z,22.80
2022-08-26T10:56:18.673Z,22.90
2022-08-26T10:59:16.859Z,23.00
2022-08-26T11:01:59.993Z,23.10
2022-08-26T11:05:03.411Z,23.20
2022-08-26T11:07:40.838Z,23.30
2022-08-26T11:10:16.310Z,23.20
2022-08-26T11:12:42.962Z,23.30
2022-08-26T11:15:24.643Z,23.20
2022-08-26T11:17:51.562Z,23.20
2022-08-26T11:20:41.556Z,23.50
2022-08-26T11:23:22.238Z,23.40
2022-08-26T11:26:07.716Z,23.40
2022-08-26T11:28:48.791Z,23.20
2022-08-26T11:31:25.009Z,23.30
2022-08-26T11:33:59.105Z,23.40
2022-08-26T11:36:35.521Z,23.20
2022-08-26T11:39:28.622Z,23.20
2022-08-26T11:42:00.216Z,23.20
2022-08-26T11:44:37.453Z,23.20
2022-08-26T11:47:05.226Z,23.00
2022-08-26T11:49:38.119Z,23.10
2022-08-26T11:52:11.477Z,23.30
2022-08-26T11:54:38.659Z,23.20
2022-08-26T11:57:11.786Z,23.30
2022-08-26T11:59:40.535Z,23.40
2022-08-26T12:02:17.975Z,23.50
2022-08-26T12:04:49.343Z,23.20
2022-08-26T12:07:17.143Z,23.40
2022-08-26T12:10:04.125Z,23.20
2022-08-26T12:12:40.212Z,23.10
2022-08-26T12:15:17.820Z,23.00
2022-08-26T12:17:48.528Z,23.00
2022-08-26T12:20:46.447Z,23.00
2022-08-26T12:23:26.870Z,22.70
2022-08-26T12:26:10.926Z,22.70
2022-08-26T12:28:47.241Z,22.60
2022-08-26T12:31:22.392Z,22.70
2022-08-26T12:33:49.441Z,22.70
2022-08-26T12:36:46.513Z,22.90
2022-08-26T12:39:23.925Z,23.40
2022-08-26T12:41:53.973Z,23.90
2022-08-26T12:44:53.955Z,23.80
2022-08-26T12:47:44.248Z,24.10
2022-08-26T12:50:30.124Z,24.00
2022-08-26T12:53:11.441Z,24.00
2022-08-26T12:55:42.301Z,24.00
2022-08-26T12:58:24.171Z,23.80
2022-08-26T13:00:52.434Z,23.70
2022-08-26T13:03:31.513Z,23.70
2022-08-26T13:06:27.698Z,23.40
2022-08-26T13:08:59.945Z,23.30
2022-08-26T13:11:32.380Z,23.20
2022-08-26T13:14:00.649Z,23.10
2022-08-26T13:16:28.948Z,23.10
2022-08-26T13:19:05.663Z,23.20
2022-08-26T13:21:49.330Z,23.20
2022-08-26T13:24:20.027Z,22.80
2022-08-26T13:26:48.967Z,22.50
2022-08-26T13:29:16.569Z,22.50
2022-08-26T13:31:44.869Z,22.40
2022-08-26T13:34:14.428Z,22.40
2022-08-26T13:36:43.777Z,22.20
2022-08-26T13:39:11.441Z,21.50
2022-08-26T13:41:38.293Z,21.00
2022-08-26T13:44:05.695Z,20.70
2022-08-26T13:46:32.657Z,20.40
2022-08-26T13:48:59.595Z,20.00
2022-08-26T13:51:26.952Z,19.90
2022-08-26T13:53:54.452Z,19.80
2022-08-26T13:56:21.722Z,19.80
2022-08-26T13:58:49.554Z,19.70
2022-08-26T14:01:16.309Z,19.70
2022-08-26T14:03:43.628Z,19.70
2022-08-26T14:06:10.813Z,19.80
2022-08-26T14:08:38.904Z,20.00
2022-08-26T14:11:05.674Z,20.00
2022-08-26T14:13:32.371Z,20.10
2022-08-26T14:16:01.579Z,20.30
2022-08-26T14:18:32.082Z,20.20
2022-08-26T14:20:59.174Z,20.30
2022-08-26T14:23:26.474Z,20.30
2022-08-26T14:25:54.156Z,20.50
2022-08-26T14:28:20.860Z,20.60
2022-08-26T14:30:52.597Z,20.60
2022-08-26T14:33:23.609Z,20.70
2022-08-26T14:35:50.317Z,20.70
2022-08-26T14:38:17.208Z,20.70
2022-08-26T14:40:44.964Z,20.40
2022-08-26T14:43:15.046Z,20.50
2022-08-26T14:45:44.970Z,20.40
2022-08-26T14:48:11.765Z,20.10
2022-08-26T14:50:38.600Z,20.00
2022-08-26T14:53:23.734Z,20.10
2022-08-26T14:55:50.477Z,20.00
2022-08-26T14:58:17.080Z,20.00
2022-08-26T15:00:43.774Z,20.00
2022-08-26T15:03:10.502Z,20.20
2022-08-26T15:05:37.344Z,20.00
2022-08-26T15:08:10.189Z,20.10
2022-08-26T15:10:37.272Z,20.00
2022-08-26T15:13:04.053Z,19.80
2022-08-26T15:15:30.695Z,19.70
2022-08-26T15:17:58.041Z,19.80
2022-08-26T15:20:24.818Z,19.80
2022-08-26T15:22:51.514Z,19.60
2022-08-26T15:25:20.046Z,19.60
2022-08-26T15:27:46.679Z,19.60
2022-08-26T15:30:13.434Z,19.60
2022-08-26T15:32:40.610Z,19.60
2022-08-26T15:35:09.220Z,19.60
2022-08-26T15:37:36.543Z,19.60
2022-08-26T15:40:04.197Z,19.60
2022-08-26T15:42:30.884Z,19.60
2022-08-26T15:44:57.549Z,19.60
2022-08-26T15:47:24.233Z,19.70
2022-08-26T15:49:50.850Z,19.60
2022-08-26T15:52:18.287Z,19.70
2022-08-26T15:54:44.945Z,19.70
2022-08-26T15:57:13.606Z,19.70
2022-08-26T15:59:41.899Z,19.70
2022-08-26T16:02:09.331Z,19.70
2022-08-26T16:04:36.151Z,19.80
2022-08-26T16:07:03.258Z,19.80
2022-08-26T16:09:30.651Z,19.90
2022-08-26T16:11:57.959Z,19.90
2022-08-26T16:14:25.466Z,20.10
2022-08-26T16:16:52.248Z,20.00
2022-08-26T16:19:19.686Z,20.10
2022-08-26T16:21:46.741Z,20.10
2022-08-26T16:24:14.012Z,20.10
2022-08-26T16:26:42.343Z,20.20
2022-08-26T16:29:13.733Z,20.30
2022-08-26T16:31:40.465Z,20.40
2022-08-26T16:34:07.992Z,20.50
2022-08-26T16:36:36.423Z,20.50
2022-08-26T16:39:05.470Z,20.50
2022-08-26T16:41:32.409Z,20.50
2022-08-26T16:43:59.888Z,20.50
2022-08-26T16:46:27.254Z,20.60
2022-08-26T16:48:55.878Z,20.60
2022-08-26T16:51:24.551Z,20.70
2022-08-26T16:53:52.359Z,20.70
2022-08-26T16:56:21.856Z,20.80
2022-08-26T16:58:49.334Z,20.80
2022-08-26T17:01:17.815Z,20.90
2022-08-26T17:03:44.485Z,20.90
2022-08-26T17:06:11.639Z,20.90
2022-08-26T17:08:39.459Z,20.80
2022-08-26T17:11:06.779Z,20.90
2022-08-26T17:13:35.100Z,20.80
2022-08-26T17:16:04.763Z,20.70
2022-08-26T17:18:33.246Z,20.50
2022-08-26T17:21:08.810Z,20.50
2022-08-26T17:23:38.607Z,20.50
2022-08-26T17:26:05.578Z,20.50
2022-08-26T17:28:32.675Z,20.50
2022-08-26T17:31:00.617Z,20.40
2022-08-26T17:33:28.130Z,20.30
2022-08-26T17:35:55.470Z,20.40
2022-08-26T17:38:22.873Z,20.40
2022-08-26T17:40:50.121Z,20.30
2022-08-26T17:43:17.224Z,20.30
2022-08-26T17:45:44.249Z,20.30
2022-08-26T17:48:11.510Z,20.30
2022-08-26T17:50:39.999Z,20.20
2022-08-26T17:53:06.716Z,20.20
2022-08-26T17:55:33.606Z,20.20
2022-08-26T17:58:00.339Z,20.20
2022-08-26T18:00:30.615Z,20.20
2022-08-26T18:02:57.331Z,20.10
2022-08-26T18:05:24.766Z,20.10
2022-08-26T18:07:51.643Z,20.10
2022-08-26T18:10:20.051Z,20.10
2022-08-26T18:12:47.781Z,20.10
2022-08-26T18:15:16.481Z,20.10
2022-08-26T18:17:43.801Z,20.00
2022-08-26T18:20:13.349Z,20.10
2022-08-26T18:22:40.399Z,20.00
2022-08-26T18:25:07.985Z,19.90
2022-08-26T18:27:36.015Z,19.90
2022-08-26T18:30:06.754Z,19.90
2022-08-26T18:32:33.408Z,19.80
2022-08-26T18:35:00.034Z,19.80
2022-08-26T18:37:29.479Z,19.70
2022-08-26T18:39:59.629Z,19.70
2022-08-26T18:42:26.956Z,19.60
2022-08-26T18:44:54.198Z,19.50
2022-08-26T18:47:20.925Z,19.50
2022-08-26T18:49:48.519Z,19.50
2022-08-26T18:52:15.365Z,19.50
2022-08-26T18:54:42.151Z,19.50
2022-08-26T18:57:09.339Z,19.50
2022-08-26T18:59:36.008Z,19.50
2022-08-26T19:02:02.801Z,19.50
2022-08-26T19:04:29.575Z,19.50
2022-08-26T19:06:56.884Z,19.50
2022-08-26T19:09:26.155Z,19.50
2022-08-26T19:11:53.720Z,19.40
2022-08-26T19:14:20.389Z,19.40
2022-08-26T19:16:49.081Z,19.40
2022-08-26T19:19:16.063Z,19.40
2022-08-26T19:21:42.714Z,19.40
2022-08-26T19:24:15.362Z,19.40
2022-08-26T19:26:43.926Z,19.40
2022-08-26T19:29:11.451Z,19.30
2022-08-26T19:31:38.136Z,19.40
2022-08-26T19:34:05.272Z,19.20
2022-08-26T19:36:32.599Z,19.20
2022-08-26T19:39:00.116Z,19.20
2022-08-26T19:41:37.572Z,19.20
2022-08-26T19:44:42.115Z,19.20
2022-08-26T19:47:10.836Z,19.20
2022-08-26T19:49:38.117Z,19.20
2022-08-26T19:52:05.926Z,19.10
2022-08-26T19:54:33.293Z,19.10
2022-08-26T19:57:00.411Z,19.10
2022-08-26T19:59:27.030Z,19.00
2022-08-26T20:02:01.015Z,19.10
2022-08-26T20:04:29.069Z,19.00
2022-08-26T20:06:57.719Z,19.00
2022-08-26T20:09:27.043Z,19.00
2022-08-26T20:11:53.970Z,18.90
2022-08-26T20:14:23.781Z,19.00
2022-08-26T20:16:50.468Z,18.90
2022-08-26T20:19:37.690Z,18.90
2022-08-26T20:22:05.090Z,18.80
2022-08-26T20:24:32.500Z,18.80
2022-08-26T20:26:59.153Z,18.80
2022-08-26T20:29:25.850Z,18.90
2022-08-26T20:31:53.246Z,18.90
2022-08-26T20:34:20.797Z,18.90
2022-08-26T20:36:49.086Z,18.90
2022-08-26T20:39:17.937Z,18.90
2022-08-26T20:41:45.350Z,18.80
2022-08-26T20:44:13.144Z,18.80
2022-08-26T20:46:40.439Z,18.80
2022-08-26T20:49:07.894Z,18.80
2022-08-26T20:51:37.202Z,18.70
2022-08-26T20:54:06.235Z,18.70
2022-08-26T20:56:32.998Z,18.60
2022-08-26T20:59:00.851Z,18.60
2022-08-26T21:01:34.240Z,18.50
2022-08-26T21:04:03.514Z,18.40
2022-08-26T21:06:32.539Z,18.40
2022-08-26T21:09:01.361Z,18.40
2022-08-26T21:11:29.125Z,18.30
2022-08-26T21:14:16.551Z,18.30
2022-08-26T21:16:43.307Z,18.20
2022-08-26T21:19:12.630Z,18.20
2022-08-26T21:21:40.726Z,18.20
2022-08-26T21:24:08.250Z,18.30
2022-08-26T21:26:35.005Z,18.20
2022-08-26T21:29:02.367Z,18.30
2022-08-26T21:31:29.708Z,18.30
2022-08-26T21:33:56.538Z,18.40
2022-08-26T21:36:23.625Z,18.30
2022-08-26T21:38:50.290Z,18.40
2022-08-26T21:41:20.325Z,18.30
2022-08-26T21:43:48.541Z,18.40
2022-08-26T21:46:18.633Z,18.40
2022-08-26T21:48:50.669Z,18.50
2022-08-26T21:51:19.813Z,18.40
2022-08-26T21:53:48.157Z,18.40
2022-08-26T21:56:16.916Z,18.40
2022-08-26T21:58:44.086Z,18.40
2022-08-26T22:01:13.782Z,18.50
2022-08-26T22:03:47.080Z,18.50
2022-08-26T22:06:18.989Z,18.50
2022-08-26T22:08:45.638Z,18.50
2022-08-26T22:11:13.142Z,18.50
2022-08-26T22:13:41.416Z,18.50
2022-08-26T22:16:09.405Z,18.50
2022-08-26T22:18:37.033Z,18.40
2022-08-26T22:21:07.598Z,18.40
2022-08-26T22:23:36.473Z,18.40
2022-08-26T22:26:04.315Z,18.40
2022-08-26T22:28:31.699Z,18.40
2022-08-26T22:30:58.394Z,18.30
2022-08-26T22:33:25.620Z,18.30
2022-08-26T22:35:53.385Z,18.30
2022-08-26T22:38:21.380Z,18.30
2022-08-26T22:40:51.221Z,18.30
2022-08-26T22:43:19.000Z,18.40
2022-08-26T22:45:47.730Z,18.30
2022-08-26T22:48:17.818Z,18.30
2022-08-26T22:50:48.303Z,18.30
2022-08-26T22:53:16.689Z,18.20
2022-08-26T22:55:44.050Z,18.30
2022-08-26T22:58:12.497Z,18.20
2022-08-26T23:00:40.007Z,18.20
2022-08-26T23:03:07.545Z,18.30
2022-08-26T23:05:34.633Z,18.20
2022-08-26T23:08:01.595Z,18.20
2022-08-26T23:10:28.574Z,18.30
2022-08-26T23:12:55.290Z,18.20
2022-08-26T23:15:22.293Z,18.20
2022-08-26T23:17:55.892Z,18.20
2022-08-26T23:20:27.358Z,18.20
2022-08-26T23:22:54.530Z,18.20
2022-08-26T23:25:21.438Z,18.30
2022-08-26T23:27:48.498Z,18.20
2022-08-26T23:30:20.054Z,18.20
2022-08-26T23:32:47.166Z,18.20
2022-08-26T23:35:14.646Z,18.20
2022-08-26T23:37:44.372Z,18.20
2022-08-26T23:40:17.100Z,18.10
2022-08-26T23:42:44.233Z,18.20
2022-08-26T23:45:12.951Z,18.10
2022-08-26T23:47:41.143Z,18.10
2022-08-26T23:50:08.843Z,18.10
2022-08-26T23:52:54.125Z,18.10
2022-08-26T23:55:21.313Z,18.10
2022-08-26T23:57:47.927Z,18.10
